sensor_id;sensor_type;location;lat;lon;timestamp;temperature;humidity
41256;DHT22;26989;45.524;10.938;2023-05-20T00:00:45;16.20;99.90
41256;DHT22;26989;45.524;10.938;2023-05-20T00:03:15;16.10;99.90
41256;DHT22;26989;45.524;10.938;2023-05-20T00:05:44;16.10;99.90
41256;DHT22;26989;45.524;10.938;2023-05-20T00:08:11;16.30;99.90
41256;DHT22;26989;45.524;10.938;2023-05-20T00:10:39;16.30;99.90
41256;DHT22;26989;45.524;10.938;2023-05-20T00:13:06;16.30;99.90
41256;DHT22;26989;45.524;10.938;2023-05-20T00:15:33;16.30;99.90
41256;DHT22;26989;45.524;10.938;2023-05-20T00:18:02;16.50;99.90
41256;DHT22;26989;45.524;10.938;2023-05-20T00:20:30;16.70;99.90
41256;DHT22;26989;45.524;10.938;2023-05-20T00:22:57;16.50;99.90
41256;DHT22;26989;45.524;10.938;2023-05-20T00:25:24;16.40;99.90
41256;DHT22;26989;45.524;10.938;2023-05-20T00:27:51;16.40;99.90
41256;DHT22;26989;45.524;10.938;2023-05-20T00:30:18;16.50;99.90
41256;DHT22;26989;45.524;10.938;2023-05-20T00:32:46;16.40;99.90
41256;DHT22;26989;45.524;10.938;2023-05-20T00:35:13;16.30;99.90
41256;DHT22;26989;45.524;10.938;2023-05-20T00:37:40;16.10;99.90
41256;DHT22;26989;45.524;10.938;2023-05-20T00:40:07;16.10;99.90
41256;DHT22;26989;45.524;10.938;2023-05-20T00:42:34;16.40;99.90
41256;DHT22;26989;45.524;10.938;2023-05-20T00:45:01;16.30;99.90
41256;DHT22;26989;45.524;10.938;2023-05-20T00:47:32;16.10;99.90
41256;DHT22;26989;45.524;10.938;2023-05-20T00:49:59;16.10;99.90
41256;DHT22;26989;45.524;10.938;2023-05-20T00:52:28;16.50;99.90
41256;DHT22;26989;45.524;10.938;2023-05-20T00:54:57;17.10;99.90
41256;DHT22;26989;45.524;10.938;2023-05-20T00:57:25;16.90;99.90
41256;DHT22;26989;45.524;10.938;2023-05-20T00:59:52;17.10;99.90
41256;DHT22;26989;45.524;10.938;2023-05-20T01:02:19;17.20;99.90
41256;DHT22;26989;45.524;10.938;2023-05-20T01:04:47;17.30;99.90
41256;DHT22;26989;45.524;10.938;2023-05-20T01:07:15;17.00;99.90
41256;DHT22;26989;45.524;10.938;2023-05-20T01:09:43;16.70;99.90
41256;DHT22;26989;45.524;10.938;2023-05-20T01:12:27;16.90;99.90
41256;DHT22;26989;45.524;10.938;2023-05-20T01:15:08;17.30;99.90
41256;DHT22;26989;45.524;10.938;2023-05-20T01:17:39;17.20;99.90
41256;DHT22;26989;45.524;10.938;2023-05-20T01:20:08;17.10;99.90
41256;DHT22;26989;45.524;10.938;2023-05-20T01:22:46;17.00;99.90
41256;DHT22;26989;45.524;10.938;2023-05-20T01:25:13;17.00;99.90
41256;DHT22;26989;45.524;10.938;2023-05-20T01:27:40;17.10;99.90
41256;DHT22;26989;45.524;10.938;2023-05-20T01:30:07;17.30;99.90
41256;DHT22;26989;45.524;10.938;2023-05-20T01:32:47;17.30;99.90
41256;DHT22;26989;45.524;10.938;2023-05-20T01:35:15;17.40;99.90
41256;DHT22;26989;45.524;10.938;2023-05-20T01:37:43;17.20;99.90
41256;DHT22;26989;45.524;10.938;2023-05-20T01:40:14;17.20;99.90
41256;DHT22;26989;45.524;10.938;2023-05-20T01:42:42;17.40;99.90
41256;DHT22;26989;45.524;10.938;2023-05-20T01:45:10;17.40;99.90
41256;DHT22;26989;45.524;10.938;2023-05-20T01:47:37;17.50;99.90
41256;DHT22;26989;45.524;10.938;2023-05-20T01:50:07;17.50;99.90
41256;DHT22;26989;45.524;10.938;2023-05-20T01:52:34;17.40;99.90
41256;DHT22;26989;45.524;10.938;2023-05-20T01:55:01;17.30;99.90
41256;DHT22;26989;45.524;10.938;2023-05-20T01:57:28;17.70;99.90
41256;DHT22;26989;45.524;10.938;2023-05-20T01:59:55;17.60;99.90
41256;DHT22;26989;45.524;10.938;2023-05-20T02:02:22;17.50;99.90
41256;DHT22;26989;45.524;10.938;2023-05-20T02:04:50;17.40;99.90
41256;DHT22;26989;45.524;10.938;2023-05-20T02:07:18;17.30;99.90
41256;DHT22;26989;45.524;10.938;2023-05-20T02:09:46;17.30;99.90
41256;DHT22;26989;45.524;10.938;2023-05-20T02:12:13;17.40;99.90
41256;DHT22;26989;45.524;10.938;2023-05-20T02:14:43;17.30;99.90
41256;DHT22;26989;45.524;10.938;2023-05-20T02:17:11;17.20;99.90
41256;DHT22;26989;45.524;10.938;2023-05-20T02:19:40;17.10;99.90
41256;DHT22;26989;45.524;10.938;2023-05-20T02:22:07;17.10;99.90
41256;DHT22;26989;45.524;10.938;2023-05-20T02:24:34;17.10;99.90
41256;DHT22;26989;45.524;10.938;2023-05-20T02:27:01;17.10;99.90
41256;DHT22;26989;45.524;10.938;2023-05-20T02:29:29;17.10;99.90
41256;DHT22;26989;45.524;10.938;2023-05-20T02:31:55;16.90;99.90
41256;DHT22;26989;45.524;10.938;2023-05-20T02:34:22;16.90;99.90
41256;DHT22;26989;45.524;10.938;2023-05-20T02:36:51;16.90;99.90
41256;DHT22;26989;45.524;10.938;2023-05-20T02:39:18;16.80;99.90
41256;DHT22;26989;45.524;10.938;2023-05-20T02:41:45;16.90;99.90
41256;DHT22;26989;45.524;10.938;2023-05-20T02:44:12;16.90;99.90
41256;DHT22;26989;45.524;10.938;2023-05-20T02:46:39;17.20;99.90
41256;DHT22;26989;45.524;10.938;2023-05-20T02:49:06;17.00;99.90
41256;DHT22;26989;45.524;10.938;2023-05-20T02:51:33;16.90;99.90
41256;DHT22;26989;45.524;10.938;2023-05-20T02:54:00;16.70;99.90
41256;DHT22;26989;45.524;10.938;2023-05-20T02:56:26;16.60;99.90
41256;DHT22;26989;45.524;10.938;2023-05-20T02:58:54;16.50;99.90
41256;DHT22;26989;45.524;10.938;2023-05-20T03:01:21;16.40;99.90
41256;DHT22;26989;45.524;10.938;2023-05-20T03:03:48;16.40;99.90
41256;DHT22;26989;45.524;10.938;2023-05-20T03:06:16;16.40;99.90
41256;DHT22;26989;45.524;10.938;2023-05-20T03:08:43;16.40;99.90
41256;DHT22;26989;45.524;10.938;2023-05-20T03:11:10;16.30;99.90
41256;DHT22;26989;45.524;10.938;2023-05-20T03:13:37;16.30;99.90
41256;DHT22;26989;45.524;10.938;2023-05-20T03:16:04;16.20;99.90
41256;DHT22;26989;45.524;10.938;2023-05-20T03:18:31;16.20;99.90
41256;DHT22;26989;45.524;10.938;2023-05-20T03:20:58;16.20;99.90
41256;DHT22;26989;45.524;10.938;2023-05-20T03:23:25;16.10;99.90
41256;DHT22;26989;45.524;10.938;2023-05-20T03:25:52;16.00;99.90
41256;DHT22;26989;45.524;10.938;2023-05-20T03:28:19;16.20;99.90
41256;DHT22;26989;45.524;10.938;2023-05-20T03:30:46;16.20;99.90
41256;DHT22;26989;45.524;10.938;2023-05-20T03:33:13;16.10;99.90
41256;DHT22;26989;45.524;10.938;2023-05-20T03:35:41;16.00;99.90
41256;DHT22;26989;45.524;10.938;2023-05-20T03:38:08;15.90;99.90
41256;DHT22;26989;45.524;10.938;2023-05-20T03:40:35;15.90;99.90
41256;DHT22;26989;45.524;10.938;2023-05-20T03:43:02;15.90;99.90
41256;DHT22;26989;45.524;10.938;2023-05-20T03:45:28;15.80;99.90
41256;DHT22;26989;45.524;10.938;2023-05-20T03:47:55;15.80;99.90
41256;DHT22;26989;45.524;10.938;2023-05-20T03:50:22;15.70;99.90
41256;DHT22;26989;45.524;10.938;2023-05-20T03:52:49;15.80;99.90
41256;DHT22;26989;45.524;10.938;2023-05-20T03:55:16;15.80;99.90
41256;DHT22;26989;45.524;10.938;2023-05-20T03:57:46;15.80;99.90
41256;DHT22;26989;45.524;10.938;2023-05-20T04:00:13;16.00;99.90
41256;DHT22;26989;45.524;10.938;2023-05-20T04:02:44;16.30;99.90
41256;DHT22;26989;45.524;10.938;2023-05-20T04:05:11;16.80;99.90
41256;DHT22;26989;45.524;10.938;2023-05-20T04:07:38;16.90;99.90
41256;DHT22;26989;45.524;10.938;2023-05-20T04:10:06;16.60;99.90
41256;DHT22;26989;45.524;10.938;2023-05-20T04:12:33;16.40;99.90
41256;DHT22;26989;45.524;10.938;2023-05-20T04:15:02;16.30;99.90
41256;DHT22;26989;45.524;10.938;2023-05-20T04:17:30;16.60;99.90
41256;DHT22;26989;45.524;10.938;2023-05-20T04:19:57;17.30;99.90
41256;DHT22;26989;45.524;10.938;2023-05-20T04:22:26;17.60;99.90
41256;DHT22;26989;45.524;10.938;2023-05-20T04:24:53;17.30;99.90
41256;DHT22;26989;45.524;10.938;2023-05-20T04:27:20;16.70;99.90
41256;DHT22;26989;45.524;10.938;2023-05-20T04:29:47;16.50;99.90
41256;DHT22;26989;45.524;10.938;2023-05-20T04:32:17;16.30;99.90
41256;DHT22;26989;45.524;10.938;2023-05-20T04:34:45;16.20;99.90
41256;DHT22;26989;45.524;10.938;2023-05-20T04:37:12;16.10;99.90
41256;DHT22;26989;45.524;10.938;2023-05-20T04:39:39;16.20;99.90
41256;DHT22;26989;45.524;10.938;2023-05-20T04:42:09;16.10;99.90
41256;DHT22;26989;45.524;10.938;2023-05-20T04:44:36;16.00;99.90
41256;DHT22;26989;45.524;10.938;2023-05-20T04:47:03;16.00;99.90
41256;DHT22;26989;45.524;10.938;2023-05-20T04:49:30;16.10;99.90
41256;DHT22;26989;45.524;10.938;2023-05-20T04:51:57;16.10;99.90
41256;DHT22;26989;45.524;10.938;2023-05-20T04:54:24;16.10;99.90
41256;DHT22;26989;45.524;10.938;2023-05-20T04:56:51;16.10;99.90
41256;DHT22;26989;45.524;10.938;2023-05-20T04:59:17;16.30;99.90
41256;DHT22;26989;45.524;10.938;2023-05-20T05:01:44;16.40;99.90
41256;DHT22;26989;45.524;10.938;2023-05-20T05:04:11;16.40;99.90
41256;DHT22;26989;45.524;10.938;2023-05-20T05:06:38;16.40;99.90
41256;DHT22;26989;45.524;10.938;2023-05-20T05:09:05;16.40;99.90
41256;DHT22;26989;45.524;10.938;2023-05-20T05:11:33;16.40;99.90
41256;DHT22;26989;45.524;10.938;2023-05-20T05:14:00;16.50;99.90
41256;DHT22;26989;45.524;10.938;2023-05-20T05:16:27;16.70;99.90
41256;DHT22;26989;45.524;10.938;2023-05-20T05:18:54;16.80;99.90
41256;DHT22;26989;45.524;10.938;2023-05-20T05:21:21;16.90;99.90
41256;DHT22;26989;45.524;10.938;2023-05-20T05:23:48;16.90;99.90
41256;DHT22;26989;45.524;10.938;2023-05-20T05:26:14;17.00;99.90
41256;DHT22;26989;45.524;10.938;2023-05-20T05:28:41;17.00;99.90
41256;DHT22;26989;45.524;10.938;2023-05-20T05:31:11;17.50;99.90
41256;DHT22;26989;45.524;10.938;2023-05-20T05:33:38;17.60;99.90
41256;DHT22;26989;45.524;10.938;2023-05-20T05:36:05;17.40;99.90
41256;DHT22;26989;45.524;10.938;2023-05-20T05:38:32;17.30;99.90
41256;DHT22;26989;45.524;10.938;2023-05-20T05:40:59;17.60;99.90
41256;DHT22;26989;45.524;10.938;2023-05-20T05:43:26;17.60;99.90
41256;DHT22;26989;45.524;10.938;2023-05-20T05:45:53;17.50;99.90
41256;DHT22;26989;45.524;10.938;2023-05-20T05:48:20;17.30;99.90
41256;DHT22;26989;45.524;10.938;2023-05-20T05:50:48;17.20;99.90
41256;DHT22;26989;45.524;10.938;2023-05-20T05:53:15;17.10;99.90
41256;DHT22;26989;45.524;10.938;2023-05-20T05:55:44;17.00;99.90
41256;DHT22;26989;45.524;10.938;2023-05-20T05:58:11;17.00;99.90
41256;DHT22;26989;45.524;10.938;2023-05-20T06:00:38;16.90;99.90
41256;DHT22;26989;45.524;10.938;2023-05-20T06:03:06;16.90;99.90
41256;DHT22;26989;45.524;10.938;2023-05-20T06:05:33;17.00;99.90
41256;DHT22;26989;45.524;10.938;2023-05-20T06:08:00;17.00;99.90
41256;DHT22;26989;45.524;10.938;2023-05-20T06:10:27;17.00;99.90
41256;DHT22;26989;45.524;10.938;2023-05-20T06:12:54;17.00;99.90
41256;DHT22;26989;45.524;10.938;2023-05-20T06:15:21;17.20;99.90
41256;DHT22;26989;45.524;10.938;2023-05-20T06:17:48;17.40;99.90
41256;DHT22;26989;45.524;10.938;2023-05-20T06:20:15;17.40;99.90
41256;DHT22;26989;45.524;10.938;2023-05-20T06:22:42;17.30;99.90
41256;DHT22;26989;45.524;10.938;2023-05-20T06:25:10;17.30;99.90
41256;DHT22;26989;45.524;10.938;2023-05-20T06:27:39;17.40;99.90
41256;DHT22;26989;45.524;10.938;2023-05-20T06:30:07;17.60;99.90
41256;DHT22;26989;45.524;10.938;2023-05-20T06:32:34;17.70;99.90
41256;DHT22;26989;45.524;10.938;2023-05-20T06:35:01;17.70;99.90
41256;DHT22;26989;45.524;10.938;2023-05-20T06:37:28;17.70;99.90
41256;DHT22;26989;45.524;10.938;2023-05-20T06:39:55;17.60;99.90
41256;DHT22;26989;45.524;10.938;2023-05-20T06:42:24;18.10;99.90
41256;DHT22;26989;45.524;10.938;2023-05-20T06:44:52;17.90;99.90
41256;DHT22;26989;45.524;10.938;2023-05-20T06:47:19;17.70;99.90
41256;DHT22;26989;45.524;10.938;2023-05-20T06:49:46;17.60;99.90
41256;DHT22;26989;45.524;10.938;2023-05-20T06:52:16;17.50;99.90
41256;DHT22;26989;45.524;10.938;2023-05-20T06:54:43;17.30;99.90
41256;DHT22;26989;45.524;10.938;2023-05-20T06:57:10;17.30;99.90
41256;DHT22;26989;45.524;10.938;2023-05-20T06:59:39;17.20;99.90
41256;DHT22;26989;45.524;10.938;2023-05-20T07:02:07;17.10;99.90
41256;DHT22;26989;45.524;10.938;2023-05-20T07:04:34;16.90;99.90
41256;DHT22;26989;45.524;10.938;2023-05-20T07:07:01;17.00;99.90
41256;DHT22;26989;45.524;10.938;2023-05-20T07:09:32;16.80;99.90
41256;DHT22;26989;45.524;10.938;2023-05-20T07:12:01;16.80;99.90
41256;DHT22;26989;45.524;10.938;2023-05-20T07:14:28;16.80;99.90
41256;DHT22;26989;45.524;10.938;2023-05-20T07:16:55;16.90;99.90
41256;DHT22;26989;45.524;10.938;2023-05-20T07:19:23;17.00;99.90
41256;DHT22;26989;45.524;10.938;2023-05-20T07:21:50;16.90;99.90
41256;DHT22;26989;45.524;10.938;2023-05-20T07:24:17;17.00;99.90
41256;DHT22;26989;45.524;10.938;2023-05-20T07:26:44;17.00;99.90
41256;DHT22;26989;45.524;10.938;2023-05-20T07:29:11;17.10;99.90
41256;DHT22;26989;45.524;10.938;2023-05-20T07:31:39;17.10;99.90
41256;DHT22;26989;45.524;10.938;2023-05-20T07:34:06;17.10;99.90
41256;DHT22;26989;45.524;10.938;2023-05-20T07:36:33;17.00;99.90
41256;DHT22;26989;45.524;10.938;2023-05-20T07:39:01;17.20;99.90
41256;DHT22;26989;45.524;10.938;2023-05-20T07:41:35;17.60;99.90
41256;DHT22;26989;45.524;10.938;2023-05-20T07:44:04;17.80;99.90
41256;DHT22;26989;45.524;10.938;2023-05-20T07:46:34;17.90;99.90
41256;DHT22;26989;45.524;10.938;2023-05-20T07:49:06;18.10;99.90
41256;DHT22;26989;45.524;10.938;2023-05-20T07:51:33;18.30;99.90
41256;DHT22;26989;45.524;10.938;2023-05-20T07:54:01;18.60;99.90
41256;DHT22;26989;45.524;10.938;2023-05-20T07:56:35;18.70;99.90
41256;DHT22;26989;45.524;10.938;2023-05-20T07:59:02;18.70;99.90
41256;DHT22;26989;45.524;10.938;2023-05-20T08:01:29;18.70;99.90
41256;DHT22;26989;45.524;10.938;2023-05-20T08:03:57;18.80;99.90
41256;DHT22;26989;45.524;10.938;2023-05-20T08:06:27;18.60;99.90
41256;DHT22;26989;45.524;10.938;2023-05-20T08:08:55;18.50;99.90
41256;DHT22;26989;45.524;10.938;2023-05-20T08:11:22;18.60;99.90
41256;DHT22;26989;45.524;10.938;2023-05-20T08:13:49;18.60;99.90
41256;DHT22;26989;45.524;10.938;2023-05-20T08:16:16;18.70;99.90
41256;DHT22;26989;45.524;10.938;2023-05-20T08:18:43;18.60;99.90
41256;DHT22;26989;45.524;10.938;2023-05-20T08:21:13;18.60;99.90
41256;DHT22;26989;45.524;10.938;2023-05-20T08:23:41;18.70;99.90
41256;DHT22;26989;45.524;10.938;2023-05-20T08:26:08;18.70;99.90
41256;DHT22;26989;45.524;10.938;2023-05-20T08:28:35;18.60;99.90
41256;DHT22;26989;45.524;10.938;2023-05-20T08:31:08;18.80;99.90
41256;DHT22;26989;45.524;10.938;2023-05-20T08:33:35;18.80;99.90
41256;DHT22;26989;45.524;10.938;2023-05-20T08:36:06;18.80;99.90
41256;DHT22;26989;45.524;10.938;2023-05-20T08:38:34;18.80;99.90
41256;DHT22;26989;45.524;10.938;2023-05-20T08:41:03;18.60;99.90
41256;DHT22;26989;45.524;10.938;2023-05-20T08:43:30;18.50;99.90
41256;DHT22;26989;45.524;10.938;2023-05-20T08:45:58;18.40;99.90
41256;DHT22;26989;45.524;10.938;2023-05-20T08:48:29;18.40;99.90
41256;DHT22;26989;45.524;10.938;2023-05-20T08:50:56;18.30;99.90
41256;DHT22;26989;45.524;10.938;2023-05-20T08:53:25;18.20;99.90
41256;DHT22;26989;45.524;10.938;2023-05-20T08:58:30;18.30;99.90
41256;DHT22;26989;45.524;10.938;2023-05-20T09:00:58;18.00;99.90
41256;DHT22;26989;45.524;10.938;2023-05-20T09:03:28;18.10;99.90
41256;DHT22;26989;45.524;10.938;2023-05-20T09:06:03;18.00;99.90
41256;DHT22;26989;45.524;10.938;2023-05-20T09:08:31;18.10;99.90
41256;DHT22;26989;45.524;10.938;2023-05-20T09:10:59;18.20;99.90
41256;DHT22;26989;45.524;10.938;2023-05-20T09:13:28;18.00;99.90
41256;DHT22;26989;45.524;10.938;2023-05-20T09:15:55;18.10;99.90
41256;DHT22;26989;45.524;10.938;2023-05-20T09:18:22;18.20;99.90
41256;DHT22;26989;45.524;10.938;2023-05-20T09:20:50;18.10;99.90
41256;DHT22;26989;45.524;10.938;2023-05-20T09:23:19;18.10;99.90
41256;DHT22;26989;45.524;10.938;2023-05-20T09:25:51;18.00;99.90
41256;DHT22;26989;45.524;10.938;2023-05-20T09:28:21;18.00;99.90
41256;DHT22;26989;45.524;10.938;2023-05-20T09:30:50;18.00;99.90
41256;DHT22;26989;45.524;10.938;2023-05-20T09:33:20;18.00;99.90
41256;DHT22;26989;45.524;10.938;2023-05-20T09:36:06;18.20;99.90
41256;DHT22;26989;45.524;10.938;2023-05-20T09:38:37;18.00;99.90
41256;DHT22;26989;45.524;10.938;2023-05-20T09:41:09;18.20;99.90
41256;DHT22;26989;45.524;10.938;2023-05-20T09:43:45;18.70;99.90
41256;DHT22;26989;45.524;10.938;2023-05-20T09:46:23;18.40;99.90
41256;DHT22;26989;45.524;10.938;2023-05-20T09:48:51;18.30;99.90
41256;DHT22;26989;45.524;10.938;2023-05-20T09:51:21;18.50;99.90
41256;DHT22;26989;45.524;10.938;2023-05-20T09:53:49;18.30;99.90
41256;DHT22;26989;45.524;10.938;2023-05-20T09:56:19;18.60;99.90
41256;DHT22;26989;45.524;10.938;2023-05-20T09:58:48;19.10;99.90
41256;DHT22;26989;45.524;10.938;2023-05-20T10:01:15;18.90;99.90
41256;DHT22;26989;45.524;10.938;2023-05-20T10:03:43;18.80;99.90
41256;DHT22;26989;45.524;10.938;2023-05-20T10:17:09;18.80;99.90
41256;DHT22;26989;45.524;10.938;2023-05-20T10:19:39;18.90;99.90
41256;DHT22;26989;45.524;10.938;2023-05-20T10:22:10;19.20;99.90
41256;DHT22;26989;45.524;10.938;2023-05-20T10:24:42;19.80;99.90
41256;DHT22;26989;45.524;10.938;2023-05-20T10:27:11;19.40;99.90
41256;DHT22;26989;45.524;10.938;2023-05-20T10:29:49;19.70;99.90
41256;DHT22;26989;45.524;10.938;2023-05-20T10:35:03;19.50;99.90
41256;DHT22;26989;45.524;10.938;2023-05-20T10:37:33;19.60;99.90
41256;DHT22;26989;45.524;10.938;2023-05-20T10:40:12;20.10;99.90
41256;DHT22;26989;45.524;10.938;2023-05-20T10:42:54;20.20;99.90
41256;DHT22;26989;45.524;10.938;2023-05-20T10:45:28;19.80;99.90
41256;DHT22;26989;45.524;10.938;2023-05-20T10:48:06;20.00;99.90
41256;DHT22;26989;45.524;10.938;2023-05-20T10:50:48;19.50;99.90
41256;DHT22;26989;45.524;10.938;2023-05-20T10:53:27;19.40;99.90
41256;DHT22;26989;45.524;10.938;2023-05-20T10:56:25;19.20;99.90
41256;DHT22;26989;45.524;10.938;2023-05-20T10:59:06;19.30;99.90
41256;DHT22;26989;45.524;10.938;2023-05-20T11:01:45;19.20;99.90
41256;DHT22;26989;45.524;10.938;2023-05-20T11:04:14;19.00;99.90
41256;DHT22;26989;45.524;10.938;2023-05-20T11:06:50;19.20;99.90
41256;DHT22;26989;45.524;10.938;2023-05-20T11:09:21;19.40;99.90
41256;DHT22;26989;45.524;10.938;2023-05-20T11:11:53;19.40;99.90
41256;DHT22;26989;45.524;10.938;2023-05-20T11:14:24;19.10;99.90
41256;DHT22;26989;45.524;10.938;2023-05-20T11:17:06;19.10;99.90
41256;DHT22;26989;45.524;10.938;2023-05-20T11:19:39;19.10;99.90
41256;DHT22;26989;45.524;10.938;2023-05-20T11:22:10;19.10;99.90
41256;DHT22;26989;45.524;10.938;2023-05-20T11:24:42;19.20;99.90
41256;DHT22;26989;45.524;10.938;2023-05-20T11:27:29;19.00;99.90
41256;DHT22;26989;45.524;10.938;2023-05-20T11:30:12;19.10;99.90
41256;DHT22;26989;45.524;10.938;2023-05-20T11:33:04;19.10;99.90
41256;DHT22;26989;45.524;10.938;2023-05-20T11:35:32;18.80;99.90
41256;DHT22;26989;45.524;10.938;2023-05-20T11:38:13;18.80;99.90
41256;DHT22;26989;45.524;10.938;2023-05-20T11:40:55;18.90;99.90
41256;DHT22;26989;45.524;10.938;2023-05-20T11:43:25;18.90;99.90
41256;DHT22;26989;45.524;10.938;2023-05-20T11:45:55;18.80;99.90
41256;DHT22;26989;45.524;10.938;2023-05-20T11:54:17;18.80;99.90
41256;DHT22;26989;45.524;10.938;2023-05-20T11:57:14;18.80;99.90
41256;DHT22;26989;45.524;10.938;2023-05-20T12:00:02;18.70;99.90
41256;DHT22;26989;45.524;10.938;2023-05-20T12:05:52;18.70;99.90
41256;DHT22;26989;45.524;10.938;2023-05-20T12:11:24;18.70;99.90
41256;DHT22;26989;45.524;10.938;2023-05-20T12:13:53;18.60;99.90
41256;DHT22;26989;45.524;10.938;2023-05-20T12:16:23;18.70;99.90
41256;DHT22;26989;45.524;10.938;2023-05-20T12:19:08;18.70;99.90
41256;DHT22;26989;45.524;10.938;2023-05-20T12:21:51;18.70;99.90
41256;DHT22;26989;45.524;10.938;2023-05-20T12:24:32;18.80;99.90
41256;DHT22;26989;45.524;10.938;2023-05-20T12:26:59;18.80;99.90
41256;DHT22;26989;45.524;10.938;2023-05-20T12:29:41;18.90;99.90
41256;DHT22;26989;45.524;10.938;2023-05-20T12:32:12;19.00;99.90
41256;DHT22;26989;45.524;10.938;2023-05-20T12:40:53;19.10;99.90
41256;DHT22;26989;45.524;10.938;2023-05-20T12:43:43;19.20;99.90
41256;DHT22;26989;45.524;10.938;2023-05-20T12:46:21;19.20;99.90
41256;DHT22;26989;45.524;10.938;2023-05-20T12:49:09;19.30;99.90
41256;DHT22;26989;45.524;10.938;2023-05-20T12:51:43;19.00;99.90
41256;DHT22;26989;45.524;10.938;2023-05-20T12:54:31;18.90;99.90
41256;DHT22;26989;45.524;10.938;2023-05-20T12:57:09;18.90;99.90
41256;DHT22;26989;45.524;10.938;2023-05-20T12:59:37;18.90;99.90
41256;DHT22;26989;45.524;10.938;2023-05-20T13:02:04;18.80;99.90
41256;DHT22;26989;45.524;10.938;2023-05-20T13:04:31;18.90;99.90
41256;DHT22;26989;45.524;10.938;2023-05-20T13:06:59;19.10;99.90
41256;DHT22;26989;45.524;10.938;2023-05-20T13:09:27;19.00;99.90
41256;DHT22;26989;45.524;10.938;2023-05-20T13:11:58;19.10;99.90
41256;DHT22;26989;45.524;10.938;2023-05-20T13:14:25;19.10;99.90
41256;DHT22;26989;45.524;10.938;2023-05-20T13:16:52;19.40;99.90
41256;DHT22;26989;45.524;10.938;2023-05-20T13:19:26;19.30;99.90
41256;DHT22;26989;45.524;10.938;2023-05-20T13:21:55;19.50;99.90
41256;DHT22;26989;45.524;10.938;2023-05-20T13:24:26;19.20;99.90
41256;DHT22;26989;45.524;10.938;2023-05-20T13:26:53;19.10;99.90
41256;DHT22;26989;45.524;10.938;2023-05-20T13:29:20;19.10;99.90
41256;DHT22;26989;45.524;10.938;2023-05-20T13:31:49;19.30;99.90
41256;DHT22;26989;45.524;10.938;2023-05-20T13:34:16;19.20;99.90
41256;DHT22;26989;45.524;10.938;2023-05-20T13:36:49;19.00;99.90
41256;DHT22;26989;45.524;10.938;2023-05-20T13:39:18;19.40;99.90
41256;DHT22;26989;45.524;10.938;2023-05-20T13:41:45;19.20;99.90
41256;DHT22;26989;45.524;10.938;2023-05-20T13:44:24;19.30;99.90
41256;DHT22;26989;45.524;10.938;2023-05-20T13:46:53;19.30;99.90
41256;DHT22;26989;45.524;10.938;2023-05-20T13:49:29;19.20;99.90
41256;DHT22;26989;45.524;10.938;2023-05-20T13:51:56;19.30;99.90
41256;DHT22;26989;45.524;10.938;2023-05-20T13:54:23;19.10;99.90
41256;DHT22;26989;45.524;10.938;2023-05-20T13:56:52;19.10;99.90
41256;DHT22;26989;45.524;10.938;2023-05-20T13:59:19;18.90;99.90
41256;DHT22;26989;45.524;10.938;2023-05-20T14:01:48;18.90;99.90
41256;DHT22;26989;45.524;10.938;2023-05-20T14:04:20;18.80;99.90
41256;DHT22;26989;45.524;10.938;2023-05-20T14:06:49;18.70;99.90
41256;DHT22;26989;45.524;10.938;2023-05-20T14:09:19;18.50;99.90
41256;DHT22;26989;45.524;10.938;2023-05-20T14:11:49;18.50;99.90
41256;DHT22;26989;45.524;10.938;2023-05-20T14:14:31;18.30;99.90
41256;DHT22;26989;45.524;10.938;2023-05-20T14:16:59;18.10;99.90
41256;DHT22;26989;45.524;10.938;2023-05-20T14:19:26;18.30;99.90
41256;DHT22;26989;45.524;10.938;2023-05-20T14:22:16;18.20;99.90
41256;DHT22;26989;45.524;10.938;2023-05-20T14:24:58;18.30;99.90
41256;DHT22;26989;45.524;10.938;2023-05-20T14:27:28;18.20;99.90
41256;DHT22;26989;45.524;10.938;2023-05-20T14:29:56;18.20;99.90
41256;DHT22;26989;45.524;10.938;2023-05-20T14:32:30;18.10;99.90
41256;DHT22;26989;45.524;10.938;2023-05-20T14:35:08;18.20;99.90
41256;DHT22;26989;45.524;10.938;2023-05-20T14:37:36;18.20;99.90
41256;DHT22;26989;45.524;10.938;2023-05-20T14:40:07;18.30;99.90
41256;DHT22;26989;45.524;10.938;2023-05-20T14:42:41;18.30;99.90
41256;DHT22;26989;45.524;10.938;2023-05-20T14:45:26;18.40;99.90
41256;DHT22;26989;45.524;10.938;2023-05-20T14:47:53;18.10;99.90
41256;DHT22;26989;45.524;10.938;2023-05-20T14:50:23;18.40;99.90
41256;DHT22;26989;45.524;10.938;2023-05-20T14:52:52;18.50;99.90
41256;DHT22;26989;45.524;10.938;2023-05-20T14:55:19;18.60;99.90
41256;DHT22;26989;45.524;10.938;2023-05-20T14:57:47;18.60;99.90
41256;DHT22;26989;45.524;10.938;2023-05-20T15:00:18;18.60;99.90
41256;DHT22;26989;45.524;10.938;2023-05-20T15:02:51;18.70;99.90
41256;DHT22;26989;45.524;10.938;2023-05-20T15:05:19;18.70;99.90
41256;DHT22;26989;45.524;10.938;2023-05-20T15:07:46;18.70;99.90
41256;DHT22;26989;45.524;10.938;2023-05-20T15:10:19;18.70;99.90
41256;DHT22;26989;45.524;10.938;2023-05-20T15:12:51;18.80;99.90
41256;DHT22;26989;45.524;10.938;2023-05-20T15:15:21;18.90;99.90
41256;DHT22;26989;45.524;10.938;2023-05-20T15:17:48;18.90;99.90
41256;DHT22;26989;45.524;10.938;2023-05-20T15:20:15;18.90;99.90
41256;DHT22;26989;45.524;10.938;2023-05-20T15:22:43;18.80;99.90
41256;DHT22;26989;45.524;10.938;2023-05-20T15:25:27;18.80;99.90
41256;DHT22;26989;45.524;10.938;2023-05-20T15:27:54;18.80;99.90
41256;DHT22;26989;45.524;10.938;2023-05-20T15:30:24;18.80;99.90
41256;DHT22;26989;45.524;10.938;2023-05-20T15:32:53;18.90;99.90
41256;DHT22;26989;45.524;10.938;2023-05-20T15:35:26;19.00;99.90
41256;DHT22;26989;45.524;10.938;2023-05-20T15:37:53;18.90;99.90
41256;DHT22;26989;45.524;10.938;2023-05-20T15:40:20;18.80;99.90
41256;DHT22;26989;45.524;10.938;2023-05-20T15:42:51;19.00;99.90
41256;DHT22;26989;45.524;10.938;2023-05-20T15:45:21;19.00;99.90
41256;DHT22;26989;45.524;10.938;2023-05-20T15:47:51;18.90;99.90
41256;DHT22;26989;45.524;10.938;2023-05-20T15:50:24;18.80;99.90
41256;DHT22;26989;45.524;10.938;2023-05-20T15:52:51;18.90;99.90
41256;DHT22;26989;45.524;10.938;2023-05-20T15:55:19;18.90;99.90
41256;DHT22;26989;45.524;10.938;2023-05-20T15:57:46;18.90;99.90
41256;DHT22;26989;45.524;10.938;2023-05-20T16:00:19;18.90;99.90
41256;DHT22;26989;45.524;10.938;2023-05-20T16:02:46;18.80;99.90
41256;DHT22;26989;45.524;10.938;2023-05-20T16:05:16;18.80;99.90